sensor_id;sensor_type;location;lat;lon;timestamp;temperature;humidity
3005;DHT22;1512;51.486;6.610;2023-07-20T00:01:26;18.40;1.00
3005;DHT22;1512;51.486;6.610;2023-07-20T00:05:34;18.40;1.00
3005;DHT22;1512;51.486;6.610;2023-07-20T00:09:43;18.40;1.00
3005;DHT22;1512;51.486;6.610;2023-07-20T00:13:52;18.40;1.00
3005;DHT22;1512;51.486;6.610;2023-07-20T00:18:00;18.40;1.00
3005;DHT22;1512;51.486;6.610;2023-07-20T00:22:09;18.40;1.00
3005;DHT22;1512;51.486;6.610;2023-07-20T00:26:18;18.40;1.00
3005;DHT22;1512;51.486;6.610;2023-07-20T00:30:28;18.40;1.00
3005;DHT22;1512;51.486;6.610;2023-07-20T00:34:36;18.30;1.00
3005;DHT22;1512;51.486;6.610;2023-07-20T00:38:45;18.30;1.00
3005;DHT22;1512;51.486;6.610;2023-07-20T00:42:54;18.30;1.00
3005;DHT22;1512;51.486;6.610;2023-07-20T00:47:03;18.30;1.00
3005;DHT22;1512;51.486;6.610;2023-07-20T00:51:12;18.20;1.00
3005;DHT22;1512;51.486;6.610;2023-07-20T00:55:20;18.20;1.00
3005;DHT22;1512;51.486;6.610;2023-07-20T00:59:29;18.10;1.00
3005;DHT22;1512;51.486;6.610;2023-07-20T01:03:38;18.00;1.00
3005;DHT22;1512;51.486;6.610;2023-07-20T01:07:53;17.90;1.00
3005;DHT22;1512;51.486;6.610;2023-07-20T01:12:14;17.90;1.00
3005;DHT22;1512;51.486;6.610;2023-07-20T01:16:22;17.80;1.00
3005;DHT22;1512;51.486;6.610;2023-07-20T01:20:33;17.80;1.00
3005;DHT22;1512;51.486;6.610;2023-07-20T01:33:31;17.70;1.00
3005;DHT22;1512;51.486;6.610;2023-07-20T01:37:45;17.70;1.00
3005;DHT22;1512;51.486;6.610;2023-07-20T01:41:55;17.60;1.00
3005;DHT22;1512;51.486;6.610;2023-07-20T01:46:04;17.40;1.00
3005;DHT22;1512;51.486;6.610;2023-07-20T01:50:12;17.30;1.00
3005;DHT22;1512;51.486;6.610;2023-07-20T01:54:21;17.30;1.00
3005;DHT22;1512;51.486;6.610;2023-07-20T01:58:30;17.20;99.90
3005;DHT22;1512;51.486;6.610;2023-07-20T02:02:38;17.10;99.90
3005;DHT22;1512;51.486;6.610;2023-07-20T02:06:47;17.10;1.00
3005;DHT22;1512;51.486;6.610;2023-07-20T02:10:56;17.20;1.00
3005;DHT22;1512;51.486;6.610;2023-07-20T02:15:05;17.00;1.00
3005;DHT22;1512;51.486;6.610;2023-07-20T02:19:14;16.90;1.00
3005;DHT22;1512;51.486;6.610;2023-07-20T02:23:23;16.90;98.20
3005;DHT22;1512;51.486;6.610;2023-07-20T02:27:32;17.00;99.90
3005;DHT22;1512;51.486;6.610;2023-07-20T02:31:41;17.00;99.90
3005;DHT22;1512;51.486;6.610;2023-07-20T02:35:51;17.10;99.90
3005;DHT22;1512;51.486;6.610;2023-07-20T02:39:59;17.10;99.90
3005;DHT22;1512;51.486;6.610;2023-07-20T02:44:08;17.10;99.90
3005;DHT22;1512;51.486;6.610;2023-07-20T02:48:17;17.10;99.90
3005;DHT22;1512;51.486;6.610;2023-07-20T02:52:26;17.10;58.10
3005;DHT22;1512;51.486;6.610;2023-07-20T02:56:35;17.10;80.30
3005;DHT22;1512;51.486;6.610;2023-07-20T03:00:44;17.10;99.90
3005;DHT22;1512;51.486;6.610;2023-07-20T03:04:52;17.10;99.90
3005;DHT22;1512;51.486;6.610;2023-07-20T03:09:02;17.10;99.90
3005;DHT22;1512;51.486;6.610;2023-07-20T03:13:11;17.10;99.90
3005;DHT22;1512;51.486;6.610;2023-07-20T03:17:21;17.00;1.00
3005;DHT22;1512;51.486;6.610;2023-07-20T03:21:30;16.90;1.00
3005;DHT22;1512;51.486;6.610;2023-07-20T03:25:39;17.00;99.90
3005;DHT22;1512;51.486;6.610;2023-07-20T03:29:48;17.00;1.00
3005;DHT22;1512;51.486;6.610;2023-07-20T03:33:56;17.00;99.90
3005;DHT22;1512;51.486;6.610;2023-07-20T03:38:05;17.00;1.00
3005;DHT22;1512;51.486;6.610;2023-07-20T03:42:14;16.90;1.00
3005;DHT22;1512;51.486;6.610;2023-07-20T03:46:22;17.00;1.00
3005;DHT22;1512;51.486;6.610;2023-07-20T03:50:32;17.00;99.90
3005;DHT22;1512;51.486;6.610;2023-07-20T03:54:40;16.90;99.90
3005;DHT22;1512;51.486;6.610;2023-07-20T03:58:50;16.80;99.90
3005;DHT22;1512;51.486;6.610;2023-07-20T04:02:59;16.70;11.40
3005;DHT22;1512;51.486;6.610;2023-07-20T04:07:07;16.70;1.00
3005;DHT22;1512;51.486;6.610;2023-07-20T04:11:16;16.60;99.90
3005;DHT22;1512;51.486;6.610;2023-07-20T04:15:25;16.60;99.90
3005;DHT22;1512;51.486;6.610;2023-07-20T04:19:33;16.60;1.00
3005;DHT22;1512;51.486;6.610;2023-07-20T04:23:42;16.60;1.00
3005;DHT22;1512;51.486;6.610;2023-07-20T04:27:51;16.60;99.90
3005;DHT22;1512;51.486;6.610;2023-07-20T04:32:03;16.60;50.70
3005;DHT22;1512;51.486;6.610;2023-07-20T04:36:12;16.70;1.00
3005;DHT22;1512;51.486;6.610;2023-07-20T04:40:22;16.70;1.00
3005;DHT22;1512;51.486;6.610;2023-07-20T04:44:31;16.60;1.00
3005;DHT22;1512;51.486;6.610;2023-07-20T04:48:39;16.70;99.90
3005;DHT22;1512;51.486;6.610;2023-07-20T04:52:48;16.60;99.90
3005;DHT22;1512;51.486;6.610;2023-07-20T04:57:16;16.50;1.00
3005;DHT22;1512;51.486;6.610;2023-07-20T05:01:25;16.50;99.90
3005;DHT22;1512;51.486;6.610;2023-07-20T05:05:35;16.50;99.90
3005;DHT22;1512;51.486;6.610;2023-07-20T05:09:44;16.60;1.00
3005;DHT22;1512;51.486;6.610;2023-07-20T05:13:53;16.50;99.90
3005;DHT22;1512;51.486;6.610;2023-07-20T05:18:02;16.40;1.00
3005;DHT22;1512;51.486;6.610;2023-07-20T05:22:13;16.40;1.00
3005;DHT22;1512;51.486;6.610;2023-07-20T05:26:21;16.60;1.00
3005;DHT22;1512;51.486;6.610;2023-07-20T05:30:30;16.60;1.00
3005;DHT22;1512;51.486;6.610;2023-07-20T05:34:39;16.70;1.00
3005;DHT22;1512;51.486;6.610;2023-07-20T05:39:07;16.80;99.90
3005;DHT22;1512;51.486;6.610;2023-07-20T05:43:15;16.80;99.90
3005;DHT22;1512;51.486;6.610;2023-07-20T05:47:24;16.70;99.90
3005;DHT22;1512;51.486;6.610;2023-07-20T05:51:32;16.70;1.00
3005;DHT22;1512;51.486;6.610;2023-07-20T05:55:43;16.80;1.00
3005;DHT22;1512;51.486;6.610;2023-07-20T05:59:51;16.80;1.00
3005;DHT22;1512;51.486;6.610;2023-07-20T06:04:00;16.80;26.20
3005;DHT22;1512;51.486;6.610;2023-07-20T06:08:09;16.80;1.00
3005;DHT22;1512;51.486;6.610;2023-07-20T06:12:18;16.80;1.00
3005;DHT22;1512;51.486;6.610;2023-07-20T06:16:26;16.70;1.00
3005;DHT22;1512;51.486;6.610;2023-07-20T06:20:35;16.80;1.00
3005;DHT22;1512;51.486;6.610;2023-07-20T06:24:44;16.90;1.00
3005;DHT22;1512;51.486;6.610;2023-07-20T06:28:52;16.80;1.00
3005;DHT22;1512;51.486;6.610;2023-07-20T06:33:20;16.80;1.00
3005;DHT22;1512;51.486;6.610;2023-07-20T06:37:30;16.90;1.00
3005;DHT22;1512;51.486;6.610;2023-07-20T06:41:38;16.90;99.90
3005;DHT22;1512;51.486;6.610;2023-07-20T06:45:52;16.90;99.90
3005;DHT22;1512;51.486;6.610;2023-07-20T06:50:02;16.80;99.90
3005;DHT22;1512;51.486;6.610;2023-07-20T06:54:11;16.80;99.90
3005;DHT22;1512;51.486;6.610;2023-07-20T06:58:20;16.80;99.90
3005;DHT22;1512;51.486;6.610;2023-07-20T07:02:30;16.70;99.90
3005;DHT22;1512;51.486;6.610;2023-07-20T07:06:39;16.70;99.90
3005;DHT22;1512;51.486;6.610;2023-07-20T07:10:47;16.70;99.90
3005;DHT22;1512;51.486;6.610;2023-07-20T07:14:56;16.80;99.90
3005;DHT22;1512;51.486;6.610;2023-07-20T07:19:05;16.90;99.90
3005;DHT22;1512;51.486;6.610;2023-07-20T07:23:16;17.00;99.90
3005;DHT22;1512;51.486;6.610;2023-07-20T07:27:24;17.20;99.90
3005;DHT22;1512;51.486;6.610;2023-07-20T07:31:34;17.40;99.90
3005;DHT22;1512;51.486;6.610;2023-07-20T07:35:46;17.40;1.00
3005;DHT22;1512;51.486;6.610;2023-07-20T07:40:01;17.70;10.30
3005;DHT22;1512;51.486;6.610;2023-07-20T07:44:10;18.00;1.00
3005;DHT22;1512;51.486;6.610;2023-07-20T07:48:19;18.10;1.00
3005;DHT22;1512;51.486;6.610;2023-07-20T07:52:35;18.30;1.00
3005;DHT22;1512;51.486;6.610;2023-07-20T07:56:45;18.50;1.00
3005;DHT22;1512;51.486;6.610;2023-07-20T08:00:53;18.60;1.00
3005;DHT22;1512;51.486;6.610;2023-07-20T08:05:02;18.70;1.00
3005;DHT22;1512;51.486;6.610;2023-07-20T08:09:11;18.80;1.00
3005;DHT22;1512;51.486;6.610;2023-07-20T08:13:20;18.70;1.00
3005;DHT22;1512;51.486;6.610;2023-07-20T08:17:28;18.70;1.00
3005;DHT22;1512;51.486;6.610;2023-07-20T08:21:37;18.90;1.00
3005;DHT22;1512;51.486;6.610;2023-07-20T08:25:46;19.00;1.00
3005;DHT22;1512;51.486;6.610;2023-07-20T08:29:55;19.00;1.00
3005;DHT22;1512;51.486;6.610;2023-07-20T08:34:05;19.10;1.00
3005;DHT22;1512;51.486;6.610;2023-07-20T08:38:15;19.10;1.00
3005;DHT22;1512;51.486;6.610;2023-07-20T08:42:24;19.10;1.00
3005;DHT22;1512;51.486;6.610;2023-07-20T08:46:33;19.20;1.00
3005;DHT22;1512;51.486;6.610;2023-07-20T08:50:44;19.40;99.90
3005;DHT22;1512;51.486;6.610;2023-07-20T08:54:54;19.70;99.90
3005;DHT22;1512;51.486;6.610;2023-07-20T08:59:02;19.90;99.90
3005;DHT22;1512;51.486;6.610;2023-07-20T09:03:12;19.90;99.90
3005;DHT22;1512;51.486;6.610;2023-07-20T09:07:22;19.70;99.90
3005;DHT22;1512;51.486;6.610;2023-07-20T09:11:31;19.60;99.90
3005;DHT22;1512;51.486;6.610;2023-07-20T09:15:48;19.50;99.90
3005;DHT22;1512;51.486;6.610;2023-07-20T09:19:58;19.50;99.90
3005;DHT22;1512;51.486;6.610;2023-07-20T09:24:07;19.70;99.90
3005;DHT22;1512;51.486;6.610;2023-07-20T09:28:15;20.00;99.90
3005;DHT22;1512;51.486;6.610;2023-07-20T09:32:24;20.10;99.90
3005;DHT22;1512;51.486;6.610;2023-07-20T09:36:52;20.30;99.90
3005;DHT22;1512;51.486;6.610;2023-07-20T09:41:22;20.60;99.90
3005;DHT22;1512;51.486;6.610;2023-07-20T09:45:39;20.60;99.90
3005;DHT22;1512;51.486;6.610;2023-07-20T09:49:48;20.30;99.90
3005;DHT22;1512;51.486;6.610;2023-07-20T09:53:58;20.40;99.90
3005;DHT22;1512;51.486;6.610;2023-07-20T09:58:08;20.50;99.90
3005;DHT22;1512;51.486;6.610;2023-07-20T10:02:23;20.60;99.90
3005;DHT22;1512;51.486;6.610;2023-07-20T10:06:33;20.60;99.90
3005;DHT22;1512;51.486;6.610;2023-07-20T10:10:44;20.80;99.90
3005;DHT22;1512;51.486;6.610;2023-07-20T10:15:08;21.00;99.90
3005;DHT22;1512;51.486;6.610;2023-07-20T10:19:17;21.10;99.90
3005;DHT22;1512;51.486;6.610;2023-07-20T10:27:55;21.10;99.90
3005;DHT22;1512;51.486;6.610;2023-07-20T10:32:08;21.40;99.90
3005;DHT22;1512;51.486;6.610;2023-07-20T10:36:24;21.60;99.90
3005;DHT22;1512;51.486;6.610;2023-07-20T10:44:41;21.40;99.90
3005;DHT22;1512;51.486;6.610;2023-07-20T10:49:06;21.60;99.90
3005;DHT22;1512;51.486;6.610;2023-07-20T10:53:14;21.60;99.90
3005;DHT22;1512;51.486;6.610;2023-07-20T10:57:30;21.70;99.90
3005;DHT22;1512;51.486;6.610;2023-07-20T11:01:41;22.10;99.90
3005;DHT22;1512;51.486;6.610;2023-07-20T11:05:50;22.20;99.90
3005;DHT22;1512;51.486;6.610;2023-07-20T11:10:12;22.20;99.90
3005;DHT22;1512;51.486;6.610;2023-07-20T11:14:22;22.20;99.90
3005;DHT22;1512;51.486;6.610;2023-07-20T11:18:33;22.50;99.90
3005;DHT22;1512;51.486;6.610;2023-07-20T11:22:43;22.60;99.90
3005;DHT22;1512;51.486;6.610;2023-07-20T11:26:53;22.30;99.90
3005;DHT22;1512;51.486;6.610;2023-07-20T11:31:03;22.60;99.90
3005;DHT22;1512;51.486;6.610;2023-07-20T11:35:13;22.80;99.90
3005;DHT22;1512;51.486;6.610;2023-07-20T11:39:23;22.90;99.90
3005;DHT22;1512;51.486;6.610;2023-07-20T11:43:33;23.20;99.90
3005;DHT22;1512;51.486;6.610;2023-07-20T11:47:43;23.40;99.90
3005;DHT22;1512;51.486;6.610;2023-07-20T11:51:52;23.10;99.90
3005;DHT22;1512;51.486;6.610;2023-07-20T11:56:01;22.70;99.90
3005;DHT22;1512;51.486;6.610;2023-07-20T12:00:10;22.60;99.90
3005;DHT22;1512;51.486;6.610;2023-07-20T12:04:24;22.40;99.90
3005;DHT22;1512;51.486;6.610;2023-07-20T12:08:33;22.30;99.90
3005;DHT22;1512;51.486;6.610;2023-07-20T12:12:43;22.20;99.90
3005;DHT22;1512;51.486;6.610;2023-07-20T12:16:53;22.20;99.90
3005;DHT22;1512;51.486;6.610;2023-07-20T12:21:03;22.60;99.90
3005;DHT22;1512;51.486;6.610;2023-07-20T12:25:12;23.10;99.90
3005;DHT22;1512;51.486;6.610;2023-07-20T12:29:20;23.50;99.90
3005;DHT22;1512;51.486;6.610;2023-07-20T12:33:29;23.70;99.90
3005;DHT22;1512;51.486;6.610;2023-07-20T12:37:38;23.50;99.90
3005;DHT22;1512;51.486;6.610;2023-07-20T12:41:46;23.20;99.90
3005;DHT22;1512;51.486;6.610;2023-07-20T12:45:56;22.90;99.90
3005;DHT22;1512;51.486;6.610;2023-07-20T12:50:05;22.70;99.90
3005;DHT22;1512;51.486;6.610;2023-07-20T12:54:14;22.60;99.90
3005;DHT22;1512;51.486;6.610;2023-07-20T12:58:22;22.80;99.90
3005;DHT22;1512;51.486;6.610;2023-07-20T13:02:32;23.00;99.90
3005;DHT22;1512;51.486;6.610;2023-07-20T13:06:41;23.30;99.90
3005;DHT22;1512;51.486;6.610;2023-07-20T13:10:50;23.10;99.90
3005;DHT22;1512;51.486;6.610;2023-07-20T13:15:00;22.90;99.90
3005;DHT22;1512;51.486;6.610;2023-07-20T13:19:29;22.60;99.90
3005;DHT22;1512;51.486;6.610;2023-07-20T13:23:37;22.60;99.90
3005;DHT22;1512;51.486;6.610;2023-07-20T13:28:05;23.00;99.90
3005;DHT22;1512;51.486;6.610;2023-07-20T13:32:15;23.30;99.90
3005;DHT22;1512;51.486;6.610;2023-07-20T13:36:25;23.20;99.90
3005;DHT22;1512;51.486;6.610;2023-07-20T13:40:35;23.40;99.90
3005;DHT22;1512;51.486;6.610;2023-07-20T13:44:44;23.80;99.90
3005;DHT22;1512;51.486;6.610;2023-07-20T13:48:54;23.90;99.90
3005;DHT22;1512;51.486;6.610;2023-07-20T13:53:04;23.70;99.90
3005;DHT22;1512;51.486;6.610;2023-07-20T13:57:14;23.40;99.90
3005;DHT22;1512;51.486;6.610;2023-07-20T14:01:24;23.10;99.90
3005;DHT22;1512;51.486;6.610;2023-07-20T14:05:34;22.90;99.90
3005;DHT22;1512;51.486;6.610;2023-07-20T14:09:44;22.90;99.90
3005;DHT22;1512;51.486;6.610;2023-07-20T14:13:54;22.80;99.90
3005;DHT22;1512;51.486;6.610;2023-07-20T14:18:04;22.80;99.90
3005;DHT22;1512;51.486;6.610;2023-07-20T14:22:12;23.10;99.90
3005;DHT22;1512;51.486;6.610;2023-07-20T14:26:21;23.60;99.90
3005;DHT22;1512;51.486;6.610;2023-07-20T14:30:30;23.40;99.90
3005;DHT22;1512;51.486;6.610;2023-07-20T14:34:39;23.30;99.90
3005;DHT22;1512;51.486;6.610;2023-07-20T14:38:48;23.30;99.90
3005;DHT22;1512;51.486;6.610;2023-07-20T14:42:57;23.30;99.90
3005;DHT22;1512;51.486;6.610;2023-07-20T14:47:07;23.40;99.90
3005;DHT22;1512;51.486;6.610;2023-07-20T14:51:17;23.30;99.90
3005;DHT22;1512;51.486;6.610;2023-07-20T14:55:26;23.10;99.90
3005;DHT22;1512;51.486;6.610;2023-07-20T14:59:35;23.10;99.90
3005;DHT22;1512;51.486;6.610;2023-07-20T15:03:43;23.20;99.90
3005;DHT22;1512;51.486;6.610;2023-07-20T15:07:52;23.80;99.90
3005;DHT22;1512;51.486;6.610;2023-07-20T15:12:01;24.60;99.90
3005;DHT22;1512;51.486;6.610;2023-07-20T15:16:10;25.10;99.90
3005;DHT22;1512;51.486;6.610;2023-07-20T15:20:19;25.20;99.90
3005;DHT22;1512;51.486;6.610;2023-07-20T15:24:27;25.20;99.90
3005;DHT22;1512;51.486;6.610;2023-07-20T15:28:36;25.00;99.90
3005;DHT22;1512;51.486;6.610;2023-07-20T15:32:45;24.90;99.90
3005;DHT22;1512;51.486;6.610;2023-07-20T15:36:55;25.00;99.90
3005;DHT22;1512;51.486;6.610;2023-07-20T15:41:04;24.90;99.90
3005;DHT22;1512;51.486;6.610;2023-07-20T15:45:13;24.90;99.90
3005;DHT22;1512;51.486;6.610;2023-07-20T15:49:21;24.50;99.90
3005;DHT22;1512;51.486;6.610;2023-07-20T15:53:32;24.10;99.90
3005;DHT22;1512;51.486;6.610;2023-07-20T15:57:41;24.10;99.90
3005;DHT22;1512;51.486;6.610;2023-07-20T16:01:49;24.20;99.90
3005;DHT22;1512;51.486;6.610;2023-07-20T16:06:00;24.00;99.90
3005;DHT22;1512;51.486;6.610;2023-07-20T16:10:10;23.90;99.90
3005;DHT22;1512;51.486;6.610;2023-07-20T16:14:19;23.60;99.90
3005;DHT22;1512;51.486;6.610;2023-07-20T16:18:28;23.50;99.90
3005;DHT22;1512;51.486;6.610;2023-07-20T16:22:56;23.30;99.90
3005;DHT22;1512;51.486;6.610;2023-07-20T16:27:24;23.20;99.90
3005;DHT22;1512;51.486;6.610;2023-07-20T16:31:32;23.10;99.90
3005;DHT22;1512;51.486;6.610;2023-07-20T16:35:41;23.20;99.90
3005;DHT22;1512;51.486;6.610;2023-07-20T16:39:52;23.20;99.90
3005;DHT22;1512;51.486;6.610;2023-07-20T16:44:00;23.20;99.90
3005;DHT22;1512;51.486;6.610;2023-07-20T16:48:11;23.20;99.90
3005;DHT22;1512;51.486;6.610;2023-07-20T16:52:21;23.10;99.90
3005;DHT22;1512;51.486;6.610;2023-07-20T16:56:30;23.20;99.90
3005;DHT22;1512;51.486;6.610;2023-07-20T17:00:38;23.20;99.90
3005;DHT22;1512;51.486;6.610;2023-07-20T17:04:48;23.20;99.90
3005;DHT22;1512;51.486;6.610;2023-07-20T17:08:57;23.10;99.90
3005;DHT22;1512;51.486;6.610;2023-07-20T17:13:07;23.00;99.90
3005;DHT22;1512;51.486;6.610;2023-07-20T17:17:18;22.80;99.90
3005;DHT22;1512;51.486;6.610;2023-07-20T17:21:28;22.70;99.90
3005;DHT22;1512;51.486;6.610;2023-07-20T17:25:46;22.70;99.90
3005;DHT22;1512;51.486;6.610;2023-07-20T17:29:56;22.60;99.90
3005;DHT22;1512;51.486;6.610;2023-07-20T17:34:06;22.50;99.90
3005;DHT22;1512;51.486;6.610;2023-07-20T17:38:15;22.50;99.90
3005;DHT22;1512;51.486;6.610;2023-07-20T17:42:25;22.40;99.90
3005;DHT22;1512;51.486;6.610;2023-07-20T17:46:36;22.50;99.90
3005;DHT22;1512;51.486;6.610;2023-07-20T17:50:47;22.40;99.90
3005;DHT22;1512;51.486;6.610;2023-07-20T17:54:56;22.40;99.90
3005;DHT22;1512;51.486;6.610;2023-07-20T17:59:04;22.30;99.90
3005;DHT22;1512;51.486;6.610;2023-07-20T18:03:13;22.20;99.90
3005;DHT22;1512;51.486;6.610;2023-07-20T18:07:22;22.10;99.90
3005;DHT22;1512;51.486;6.610;2023-07-20T18:11:31;22.10;99.90
3005;DHT22;1512;51.486;6.610;2023-07-20T18:15:39;22.00;99.90
3005;DHT22;1512;51.486;6.610;2023-07-20T18:19:48;22.00;99.90
3005;DHT22;1512;51.486;6.610;2023-07-20T18:23:57;21.90;99.90
3005;DHT22;1512;51.486;6.610;2023-07-20T18:28:06;21.90;99.90
3005;DHT22;1512;51.486;6.610;2023-07-20T18:32:34;21.80;99.90
3005;DHT22;1512;51.486;6.610;2023-07-20T18:36:42;21.70;99.90
3005;DHT22;1512;51.486;6.610;2023-07-20T18:40:51;21.60;99.90
3005;DHT22;1512;51.486;6.610;2023-07-20T18:45:00;21.50;99.90
3005;DHT22;1512;51.486;6.610;2023-07-20T18:49:08;21.50;99.90
3005;DHT22;1512;51.486;6.610;2023-07-20T18:53:17;21.50;99.90
3005;DHT22;1512;51.486;6.610;2023-07-20T18:57:26;21.50;99.90
3005;DHT22;1512;51.486;6.610;2023-07-20T19:01:54;21.50;99.90
3005;DHT22;1512;51.486;6.610;2023-07-20T19:06:03;21.40;99.90
3005;DHT22;1512;51.486;6.610;2023-07-20T19:10:12;21.40;99.90
3005;DHT22;1512;51.486;6.610;2023-07-20T19:14:21;21.30;99.90
3005;DHT22;1512;51.486;6.610;2023-07-20T19:18:30;21.30;99.90
3005;DHT22;1512;51.486;6.610;2023-07-20T19:22:39;21.30;99.90
3005;DHT22;1512;51.486;6.610;2023-07-20T19:26:47;21.20;99.90
3005;DHT22;1512;51.486;6.610;2023-07-20T19:30:56;21.20;99.90
3005;DHT22;1512;51.486;6.610;2023-07-20T19:35:05;21.20;99.90
3005;DHT22;1512;51.486;6.610;2023-07-20T19:39:14;21.10;99.90
3005;DHT22;1512;51.486;6.610;2023-07-20T19:43:23;21.00;99.90
3005;DHT22;1512;51.486;6.610;2023-07-20T19:47:32;20.90;99.90
3005;DHT22;1512;51.486;6.610;2023-07-20T19:51:40;20.90;99.90
3005;DHT22;1512;51.486;6.610;2023-07-20T19:55:49;20.80;99.90
3005;DHT22;1512;51.486;6.610;2023-07-20T19:59:58;20.70;99.90
3005;DHT22;1512;51.486;6.610;2023-07-20T20:04:07;20.60;99.90
3005;DHT22;1512;51.486;6.610;2023-07-20T20:08:17;20.50;99.90
3005;DHT22;1512;51.486;6.610;2023-07-20T20:12:27;20.40;99.90
3005;DHT22;1512;51.486;6.610;2023-07-20T20:16:37;20.30;99.90
3005;DHT22;1512;51.486;6.610;2023-07-20T20:20:46;20.20;99.90
3005;DHT22;1512;51.486;6.610;2023-07-20T20:24:55;20.10;99.90
3005;DHT22;1512;51.486;6.610;2023-07-20T20:29:03;20.00;99.90
3005;DHT22;1512;51.486;6.610;2023-07-20T20:33:12;19.90;99.90
3005;DHT22;1512;51.486;6.610;2023-07-20T20:37:22;19.70;99.90
3005;DHT22;1512;51.486;6.610;2023-07-20T20:41:32;19.70;99.90
3005;DHT22;1512;51.486;6.610;2023-07-20T20:45:42;19.70;99.90
3005;DHT22;1512;51.486;6.610;2023-07-20T20:49:51;19.60;99.90
3005;DHT22;1512;51.486;6.610;2023-07-20T20:54:01;19.50;99.90
3005;DHT22;1512;51.486;6.610;2023-07-20T20:58:11;19.40;99.90
3005;DHT22;1512;51.486;6.610;2023-07-20T21:02:20;19.40;99.90
3005;DHT22;1512;51.486;6.610;2023-07-20T21:06:28;19.40;99.90
3005;DHT22;1512;51.486;6.610;2023-07-20T21:10:37;19.50;99.90
3005;DHT22;1512;51.486;6.610;2023-07-20T21:14:46;19.50;99.90
3005;DHT22;1512;51.486;6.610;2023-07-20T21:18:55;19.50;99.90
3005;DHT22;1512;51.486;6.610;2023-07-20T21:23:03;19.40;99.90
3005;DHT22;1512;51.486;6.610;2023-07-20T21:31:33;19.40;99.90
3005;DHT22;1512;51.486;6.610;2023-07-20T21:35:42;19.30;99.90
3005;DHT22;1512;51.486;6.610;2023-07-20T21:39:51;19.30;99.90
3005;DHT22;1512;51.486;6.610;2023-07-20T21:44:00;19.20;99.90
3005;DHT22;1512;51.486;6.610;2023-07-20T21:48:09;19.10;99.90
3005;DHT22;1512;51.486;6.610;2023-07-20T21:52:17;19.00;99.90
3005;DHT22;1512;51.486;6.610;2023-07-20T21:56:26;19.00;99.90
3005;DHT22;1512;51.486;6.610;2023-07-20T22:00:35;18.90;99.90
3005;DHT22;1512;51.486;6.610;2023-07-20T22:04:43;18.90;99.90
3005;DHT22;1512;51.486;6.610;2023-07-20T22:08:53;18.90;99.90
3005;DHT22;1512;51.486;6.610;2023-07-20T22:13:02;18.90;99.90
3005;DHT22;1512;51.486;6.610;2023-07-20T22:17:11;18.90;99.90
3005;DHT22;1512;51.486;6.610;2023-07-20T22:21:24;18.90;99.90
3005;DHT22;1512;51.486;6.610;2023-07-20T22:25:32;18.90;99.90
3005;DHT22;1512;51.486;6.610;2023-07-20T22:29:41;18.80;99.90
3005;DHT22;1512;51.486;6.610;2023-07-20T22:33:50;18.70;99.90
3005;DHT22;1512;51.486;6.610;2023-07-20T22:38:00;18.70;99.90
3005;DHT22;1512;51.486;6.610;2023-07-20T22:42:09;18.70;99.90
3005;DHT22;1512;51.486;6.610;2023-07-20T22:46:17;18.50;99.90
3005;DHT22;1512;51.486;6.610;2023-07-20T22:50:27;18.40;99.90
3005;DHT22;1512;51.486;6.610;2023-07-20T22:54:35;18.20;99.90
3005;DHT22;1512;51.486;6.610;2023-07-20T22:58:44;18.10;99.90
3005;DHT22;1512;51.486;6.610;2023-07-20T23:02:55;18.10;99.90
3005;DHT22;1512;51.486;6.610;2023-07-20T23:07:04;18.00;99.90
3005;DHT22;1512;51.486;6.610;2023-07-20T23:11:13;17.90;99.90
3005;DHT22;1512;51.486;6.610;2023-07-20T23:15:22;17.90;99.90
3005;DHT22;1512;51.486;6.610;2023-07-20T23:19:30;17.80;99.90
3005;DHT22;1512;51.486;6.610;2023-07-20T23:23:39;17.80;1.00
3005;DHT22;1512;51.486;6.610;2023-07-20T23:27:49;17.70;99.90
3005;DHT22;1512;51.486;6.610;2023-07-20T23:32:02;17.70;99.90
3005;DHT22;1512;51.486;6.610;2023-07-20T23:36:11;17.50;1.00
3005;DHT22;1512;51.486;6.610;2023-07-20T23:40:20;17.40;1.00
3005;DHT22;1512;51.486;6.610;2023-07-20T23:44:30;17.20;1.00
3005;DHT22;1512;51.486;6.610;2023-07-20T23:48:39;17.10;1.00
3005;DHT22;1512;51.486;6.610;2023-07-20T23:52:49;17.10;1.00
3005;DHT22;1512;51.486;6.610;2023-07-20T23:56:57;17.00;1.00
